sensor_id;sensor_type;location;lat;lon;timestamp;pressure;altitude;pressure_sealevel;temperature;humidity
76260;BME280;65076;52.362;6.588;2023-04-07T00:00:05;101396.00;;;9.71;81.10
76260;BME280;65076;52.362;6.588;2023-04-07T00:02:34;101400.03;;;9.33;81.74
76260;BME280;65076;52.362;6.588;2023-04-07T00:05:02;101401.31;;;9.48;82.26
76260;BME280;65076;52.362;6.588;2023-04-07T00:07:30;101395.84;;;9.50;82.76
76260;BME280;65076;52.362;6.588;2023-04-07T00:10:11;101392.56;;;9.66;82.08
76260;BME280;65076;52.362;6.588;2023-04-07T00:12:39;101395.84;;;9.50;82.15
76260;BME280;65076;52.362;6.588;2023-04-07T00:15:08;101390.19;;;9.82;81.24
76260;BME280;65076;52.362;6.588;2023-04-07T00:17:37;101400.88;;;9.60;82.14
76260;BME280;65076;52.362;6.588;2023-04-07T00:20:05;101394.34;;;9.67;82.19
76260;BME280;65076;52.362;6.588;2023-04-07T00:22:34;101395.34;;;9.63;81.60
76260;BME280;65076;52.362;6.588;2023-04-07T00:25:02;101394.59;;;9.60;81.70
76260;BME280;65076;52.362;6.588;2023-04-07T00:27:32;101400.22;;;9.54;81.89
76260;BME280;65076;52.362;6.588;2023-04-07T00:30:00;101393.19;;;9.48;82.95
76260;BME280;65076;52.362;6.588;2023-04-07T00:32:27;101401.94;;;9.81;81.97
76260;BME280;65076;52.362;6.588;2023-04-07T00:34:55;101399.13;;;9.84;81.16
76260;BME280;65076;52.362;6.588;2023-04-07T00:37:27;101397.25;;;9.86;81.99
76260;BME280;65076;52.362;6.588;2023-04-07T00:39:55;101403.41;;;9.90;81.52
76260;BME280;65076;52.362;6.588;2023-04-07T00:42:24;101398.00;;;9.90;81.81
76260;BME280;65076;52.362;6.588;2023-04-07T00:44:53;101396.84;;;9.97;81.55
76260;BME280;65076;52.362;6.588;2023-04-07T00:47:22;101399.78;;;9.66;81.28
76260;BME280;65076;52.362;6.588;2023-04-07T00:49:50;101397.59;;;9.77;81.85
76260;BME280;65076;52.362;6.588;2023-04-07T00:52:18;101400.00;;;9.85;81.67
76260;BME280;65076;52.362;6.588;2023-04-07T00:54:52;101396.16;;;9.92;81.04
76260;BME280;65076;52.362;6.588;2023-04-07T00:57:21;101400.47;;;9.72;82.25
76260;BME280;65076;52.362;6.588;2023-04-07T00:59:49;101392.00;;;9.82;82.24
76260;BME280;65076;52.362;6.588;2023-04-07T01:02:22;101391.94;;;10.08;81.08
76260;BME280;65076;52.362;6.588;2023-04-07T01:05:04;101390.63;;;9.95;81.68
76260;BME280;65076;52.362;6.588;2023-04-07T01:07:47;101398.00;;;9.90;81.07
76260;BME280;65076;52.362;6.588;2023-04-07T01:10:26;101395.81;;;9.76;80.96
76260;BME280;65076;52.362;6.588;2023-04-07T01:13:05;101396.16;;;9.92;81.66
76260;BME280;65076;52.362;6.588;2023-04-07T01:15:44;101393.63;;;9.62;81.65
76260;BME280;65076;52.362;6.588;2023-04-07T01:18:21;101399.00;;;10.12;80.84
76260;BME280;65076;52.362;6.588;2023-04-07T01:21:00;101397.03;;;10.15;80.37
76260;BME280;65076;52.362;6.588;2023-04-07T01:23:41;101394.50;;;9.88;81.39
76260;BME280;65076;52.362;6.588;2023-04-07T01:26:29;101393.72;;;10.09;81.48
76260;BME280;65076;52.362;6.588;2023-04-07T01:29:31;101399.91;;;9.88;81.57
76260;BME280;65076;52.362;6.588;2023-04-07T01:32:03;101396.03;;;9.95;81.31
76260;BME280;65076;52.362;6.588;2023-04-07T01:34:34;101397.88;;;9.94;81.25
76260;BME280;65076;52.362;6.588;2023-04-07T01:37:06;101390.16;;;10.07;80.70
76260;BME280;65076;52.362;6.588;2023-04-07T01:39:35;101390.22;;;10.30;80.48
76260;BME280;65076;52.362;6.588;2023-04-07T01:42:05;101400.69;;;10.39;80.21
76260;BME280;65076;52.362;6.588;2023-04-07T01:44:35;101400.66;;;9.91;81.14
76260;BME280;65076;52.362;6.588;2023-04-07T01:47:04;101393.81;;;10.06;81.47
76260;BME280;65076;52.362;6.588;2023-04-07T01:49:34;101394.09;;;9.98;80.99
76260;BME280;65076;52.362;6.588;2023-04-07T01:52:04;101392.91;;;10.05;80.91
76260;BME280;65076;52.362;6.588;2023-04-07T01:54:34;101390.06;;;9.85;82.25
76260;BME280;65076;52.362;6.588;2023-04-07T01:57:03;101393.53;;;10.13;81.68
76260;BME280;65076;52.362;6.588;2023-04-07T01:59:31;101386.69;;;10.28;80.65
76260;BME280;65076;52.362;6.588;2023-04-07T02:02:00;101389.06;;;10.12;80.78
76260;BME280;65076;52.362;6.588;2023-04-07T02:04:32;101396.63;;;10.28;80.69
76260;BME280;65076;52.362;6.588;2023-04-07T02:07:07;101392.06;;;10.30;80.40
76260;BME280;65076;52.362;6.588;2023-04-07T02:09:39;101387.28;;;10.11;80.76
76260;BME280;65076;52.362;6.588;2023-04-07T02:12:12;101393.63;;;10.10;80.50
76260;BME280;65076;52.362;6.588;2023-04-07T02:14:42;101393.59;;;10.12;79.73
76260;BME280;65076;52.362;6.588;2023-04-07T02:17:12;101391.41;;;9.73;81.68
76260;BME280;65076;52.362;6.588;2023-04-07T02:19:43;101389.94;;;10.13;80.79
76260;BME280;65076;52.362;6.588;2023-04-07T02:22:14;101395.06;;;10.20;80.56
76260;BME280;65076;52.362;6.588;2023-04-07T02:24:43;101394.66;;;10.31;80.50
76260;BME280;65076;52.362;6.588;2023-04-07T02:27:11;101396.22;;;10.38;80.10
76260;BME280;65076;52.362;6.588;2023-04-07T02:29:39;101392.22;;;10.48;80.09
76260;BME280;65076;52.362;6.588;2023-04-07T02:32:07;101403.53;;;10.58;80.07
76260;BME280;65076;52.362;6.588;2023-04-07T02:34:37;101398.25;;;10.32;79.88
76260;BME280;65076;52.362;6.588;2023-04-07T02:37:04;101396.66;;;10.26;79.80
76260;BME280;65076;52.362;6.588;2023-04-07T02:39:32;101399.56;;;10.22;80.42
76260;BME280;65076;52.362;6.588;2023-04-07T02:42:01;101405.63;;;10.28;80.16
76260;BME280;65076;52.362;6.588;2023-04-07T02:44:28;101402.44;;;10.17;80.49
76260;BME280;65076;52.362;6.588;2023-04-07T02:46:56;101409.13;;;10.05;80.96
76260;BME280;65076;52.362;6.588;2023-04-07T02:49:24;101413.03;;;9.98;80.90
76260;BME280;65076;52.362;6.588;2023-04-07T02:51:54;101412.09;;;9.99;81.58
76260;BME280;65076;52.362;6.588;2023-04-07T02:54:21;101408.81;;;10.14;81.03
76260;BME280;65076;52.362;6.588;2023-04-07T02:56:49;101410.09;;;10.29;80.33
76260;BME280;65076;52.362;6.588;2023-04-07T02:59:17;101412.94;;;10.00;81.07
76260;BME280;65076;52.362;6.588;2023-04-07T03:01:45;101412.38;;;10.16;81.29
76260;BME280;65076;52.362;6.588;2023-04-07T03:04:13;101411.53;;;10.14;80.88
76260;BME280;65076;52.362;6.588;2023-04-07T03:06:42;101417.16;;;10.56;80.13
76260;BME280;65076;52.362;6.588;2023-04-07T03:09:11;101408.78;;;10.62;80.00
76260;BME280;65076;52.362;6.588;2023-04-07T03:11:39;101413.84;;;10.48;79.38
76260;BME280;65076;52.362;6.588;2023-04-07T03:14:07;101408.97;;;10.35;79.31
76260;BME280;65076;52.362;6.588;2023-04-07T03:16:34;101409.03;;;10.33;79.62
76260;BME280;65076;52.362;6.588;2023-04-07T03:19:02;101416.31;;;10.54;79.86
76260;BME280;65076;52.362;6.588;2023-04-07T03:21:30;101419.91;;;10.55;79.21
76260;BME280;65076;52.362;6.588;2023-04-07T03:23:59;101409.59;;;10.65;79.40
76260;BME280;65076;52.362;6.588;2023-04-07T03:26:28;101413.75;;;10.73;78.77
76260;BME280;65076;52.362;6.588;2023-04-07T03:28:56;101411.03;;;10.96;78.91
76260;BME280;65076;52.362;6.588;2023-04-07T03:31:24;101410.63;;;10.84;78.50
76260;BME280;65076;52.362;6.588;2023-04-07T03:33:52;101415.06;;;10.63;78.51
76260;BME280;65076;52.362;6.588;2023-04-07T03:36:20;101406.47;;;10.75;78.17
76260;BME280;65076;52.362;6.588;2023-04-07T03:38:48;101407.91;;;10.39;79.37
76260;BME280;65076;52.362;6.588;2023-04-07T03:41:18;101408.28;;;10.30;79.57
76260;BME280;65076;52.362;6.588;2023-04-07T03:43:47;101412.44;;;10.38;80.07
76260;BME280;65076;52.362;6.588;2023-04-07T03:46:15;101406.56;;;10.50;79.05
76260;BME280;65076;52.362;6.588;2023-04-07T03:48:46;101407.38;;;10.76;79.10
76260;BME280;65076;52.362;6.588;2023-04-07T03:51:14;101414.56;;;10.53;78.38
76260;BME280;65076;52.362;6.588;2023-04-07T03:53:42;101414.78;;;10.71;78.75
76260;BME280;65076;52.362;6.588;2023-04-07T03:56:10;101417.75;;;10.86;78.86
76260;BME280;65076;52.362;6.588;2023-04-07T03:58:38;101423.03;;;10.68;79.43
76260;BME280;65076;52.362;6.588;2023-04-07T04:01:09;101418.66;;;10.63;79.07
76260;BME280;65076;52.362;6.588;2023-04-07T04:03:37;101421.50;;;10.60;79.88
76260;BME280;65076;52.362;6.588;2023-04-07T04:06:05;101423.22;;;10.85;79.59
76260;BME280;65076;52.362;6.588;2023-04-07T04:08:34;101426.31;;;10.76;78.55
76260;BME280;65076;52.362;6.588;2023-04-07T04:11:02;101427.31;;;10.95;78.95
76260;BME280;65076;52.362;6.588;2023-04-07T04:13:30;101427.28;;;10.96;78.11
76260;BME280;65076;52.362;6.588;2023-04-07T04:15:58;101425.44;;;10.97;78.11
76260;BME280;65076;52.362;6.588;2023-04-07T04:18:27;101437.84;;;10.81;77.85
76260;BME280;65076;52.362;6.588;2023-04-07T04:20:55;101435.81;;;10.86;78.16
76260;BME280;65076;52.362;6.588;2023-04-07T04:23:23;101436.47;;;10.69;78.32
76260;BME280;65076;52.362;6.588;2023-04-07T04:25:51;101433.13;;;10.86;78.32
76260;BME280;65076;52.362;6.588;2023-04-07T04:28:18;101432.78;;;10.72;79.02
76260;BME280;65076;52.362;6.588;2023-04-07T04:30:47;101440.41;;;10.62;79.02
76260;BME280;65076;52.362;6.588;2023-04-07T04:33:14;101433.63;;;10.50;78.99
76260;BME280;65076;52.362;6.588;2023-04-07T04:35:45;101438.06;;;10.75;78.82
76260;BME280;65076;52.362;6.588;2023-04-07T04:38:13;101443.25;;;10.81;78.37
76260;BME280;65076;52.362;6.588;2023-04-07T04:40:41;101438.25;;;10.93;78.49
76260;BME280;65076;52.362;6.588;2023-04-07T04:43:09;101448.28;;;10.90;78.29
76260;BME280;65076;52.362;6.588;2023-04-07T04:45:37;101448.78;;;10.78;78.01
76260;BME280;65076;52.362;6.588;2023-04-07T04:48:05;101443.13;;;10.84;78.49
76260;BME280;65076;52.362;6.588;2023-04-07T04:50:34;101447.34;;;10.46;78.84
76260;BME280;65076;52.362;6.588;2023-04-07T04:53:03;101454.31;;;10.75;78.48
76260;BME280;65076;52.362;6.588;2023-04-07T04:55:31;101450.03;;;10.69;78.38
76260;BME280;65076;52.362;6.588;2023-04-07T04:57:59;101452.19;;;10.59;78.95
76260;BME280;65076;52.362;6.588;2023-04-07T05:00:27;101458.25;;;10.43;78.77
76260;BME280;65076;52.362;6.588;2023-04-07T05:02:55;101454.25;;;10.53;80.15
76260;BME280;65076;52.362;6.588;2023-04-07T05:05:23;101454.91;;;10.83;79.52
76260;BME280;65076;52.362;6.588;2023-04-07T05:07:51;101449.97;;;10.47;79.80
76260;BME280;65076;52.362;6.588;2023-04-07T05:10:20;101463.56;;;10.69;78.63
76260;BME280;65076;52.362;6.588;2023-04-07T05:12:48;101464.66;;;9.91;80.19
76260;BME280;65076;52.362;6.588;2023-04-07T05:15:17;101475.94;;;10.28;81.67
76260;BME280;65076;52.362;6.588;2023-04-07T05:17:45;101468.28;;;10.16;81.05
76260;BME280;65076;52.362;6.588;2023-04-07T05:20:16;101474.78;;;10.58;80.05
76260;BME280;65076;52.362;6.588;2023-04-07T05:22:44;101482.50;;;10.69;79.42
76260;BME280;65076;52.362;6.588;2023-04-07T05:25:11;101484.56;;;10.39;79.04
76260;BME280;65076;52.362;6.588;2023-04-07T05:27:41;101480.97;;;10.39;79.54
76260;BME280;65076;52.362;6.588;2023-04-07T05:30:10;101478.09;;;10.18;79.54
76260;BME280;65076;52.362;6.588;2023-04-07T05:32:38;101478.44;;;10.57;79.52
76260;BME280;65076;52.362;6.588;2023-04-07T05:35:07;101482.50;;;10.46;79.67
76260;BME280;65076;52.362;6.588;2023-04-07T05:37:36;101487.75;;;10.50;78.96
76260;BME280;65076;52.362;6.588;2023-04-07T05:40:05;101492.09;;;10.54;79.52
76260;BME280;65076;52.362;6.588;2023-04-07T05:42:33;101494.44;;;10.63;79.32
76260;BME280;65076;52.362;6.588;2023-04-07T05:45:03;101494.97;;;10.50;78.94
76260;BME280;65076;52.362;6.588;2023-04-07T05:47:32;101496.91;;;10.46;79.46
76260;BME280;65076;52.362;6.588;2023-04-07T05:50:00;101503.75;;;10.56;79.17
76260;BME280;65076;52.362;6.588;2023-04-07T05:52:28;101505.75;;;10.51;79.64
76260;BME280;65076;52.362;6.588;2023-04-07T05:54:56;101499.63;;;10.22;79.06
76260;BME280;65076;52.362;6.588;2023-04-07T05:57:24;101505.75;;;10.51;78.73
76260;BME280;65076;52.362;6.588;2023-04-07T05:59:53;101495.38;;;10.62;78.53
76260;BME280;65076;52.362;6.588;2023-04-07T06:02:23;101506.09;;;10.66;78.57
76260;BME280;65076;52.362;6.588;2023-04-07T06:04:51;101504.31;;;10.65;78.32
76260;BME280;65076;52.362;6.588;2023-04-07T06:07:19;101514.53;;;10.33;79.66
76260;BME280;65076;52.362;6.588;2023-04-07T06:09:47;101507.69;;;10.71;78.72
76260;BME280;65076;52.362;6.588;2023-04-07T06:12:15;101519.06;;;10.06;79.82
76260;BME280;65076;52.362;6.588;2023-04-07T06:14:49;101516.56;;;10.51;79.99
76260;BME280;65076;52.362;6.588;2023-04-07T06:17:19;101518.56;;;10.46;79.89
76260;BME280;65076;52.362;6.588;2023-04-07T06:19:48;101521.56;;;10.37;79.48
76260;BME280;65076;52.362;6.588;2023-04-07T06:22:16;101511.59;;;10.39;79.49
76260;BME280;65076;52.362;6.588;2023-04-07T06:24:44;101515.25;;;10.38;79.20
76260;BME280;65076;52.362;6.588;2023-04-07T06:27:12;101529.88;;;10.06;79.28
76260;BME280;65076;52.362;6.588;2023-04-07T06:29:40;101530.16;;;10.25;80.15
76260;BME280;65076;52.362;6.588;2023-04-07T06:32:08;101522.75;;;10.30;80.86
76260;BME280;65076;52.362;6.588;2023-04-07T06:34:36;101530.25;;;10.47;79.19
76260;BME280;65076;52.362;6.588;2023-04-07T06:37:05;101530.75;;;10.07;79.58
76260;BME280;65076;52.362;6.588;2023-04-07T06:39:33;101531.50;;;10.37;79.93
76260;BME280;65076;52.362;6.588;2023-04-07T06:42:03;101536.53;;;9.96;79.70
76260;BME280;65076;52.362;6.588;2023-04-07T06:44:31;101533.97;;;10.19;80.49
76260;BME280;65076;52.362;6.588;2023-04-07T06:46:59;101534.34;;;10.34;79.25
76260;BME280;65076;52.362;6.588;2023-04-07T06:49:27;101540.31;;;10.18;80.08
76260;BME280;65076;52.362;6.588;2023-04-07T06:51:55;101541.78;;;10.01;80.38
76260;BME280;65076;52.362;6.588;2023-04-07T06:54:24;101541.69;;;10.30;79.26
76260;BME280;65076;52.362;6.588;2023-04-07T06:56:52;101545.16;;;10.34;80.20
76260;BME280;65076;52.362;6.588;2023-04-07T06:59:22;101547.75;;;10.37;79.02
76260;BME280;65076;52.362;6.588;2023-04-07T07:01:50;101553.41;;;10.31;79.44
76260;BME280;65076;52.362;6.588;2023-04-07T07:04:18;101556.81;;;10.36;79.26
76260;BME280;65076;52.362;6.588;2023-04-07T07:06:48;101557.03;;;10.54;79.64
76260;BME280;65076;52.362;6.588;2023-04-07T07:09:16;101554.00;;;10.39;79.38
76260;BME280;65076;52.362;6.588;2023-04-07T07:11:46;101564.59;;;10.20;79.89
76260;BME280;65076;52.362;6.588;2023-04-07T07:14:13;101557.75;;;10.35;79.41
76260;BME280;65076;52.362;6.588;2023-04-07T07:16:44;101558.22;;;10.21;79.93
76260;BME280;65076;52.362;6.588;2023-04-07T07:19:12;101566.47;;;10.18;80.00
76260;BME280;65076;52.362;6.588;2023-04-07T07:21:40;101569.75;;;10.26;80.37
76260;BME280;65076;52.362;6.588;2023-04-07T07:24:08;101572.81;;;10.15;79.60
76260;BME280;65076;52.362;6.588;2023-04-07T07:26:36;101572.72;;;10.20;80.15
76260;BME280;65076;52.362;6.588;2023-04-07T07:29:06;101578.13;;;10.20;79.50
76260;BME280;65076;52.362;6.588;2023-04-07T07:31:34;101574.88;;;10.35;79.01
76260;BME280;65076;52.362;6.588;2023-04-07T07:34:02;101577.63;;;10.58;78.66
76260;BME280;65076;52.362;6.588;2023-04-07T07:36:30;101579.06;;;10.44;78.85
76260;BME280;65076;52.362;6.588;2023-04-07T07:38:59;101587.00;;;10.24;78.42
76260;BME280;65076;52.362;6.588;2023-04-07T07:41:27;101586.97;;;10.50;78.66
76260;BME280;65076;52.362;6.588;2023-04-07T07:43:55;101589.09;;;10.65;78.08
76260;BME280;65076;52.362;6.588;2023-04-07T07:46:25;101594.16;;;10.51;78.17
76260;BME280;65076;52.362;6.588;2023-04-07T07:48:53;101594.13;;;9.72;80.19
76260;BME280;65076;52.362;6.588;2023-04-07T07:51:21;101605.41;;;10.11;81.17
76260;BME280;65076;52.362;6.588;2023-04-07T07:53:49;101599.50;;;10.00;80.93
76260;BME280;65076;52.362;6.588;2023-04-07T07:56:17;101607.72;;;10.25;80.12
76260;BME280;65076;52.362;6.588;2023-04-07T07:58:44;101605.91;;;9.69;80.59
76260;BME280;65076;52.362;6.588;2023-04-07T08:01:12;101613.03;;;9.44;82.07
76260;BME280;65076;52.362;6.588;2023-04-07T08:03:42;101615.78;;;9.98;81.84
76260;BME280;65076;52.362;6.588;2023-04-07T08:06:11;101622.00;;;10.28;81.24
76260;BME280;65076;52.362;6.588;2023-04-07T08:08:39;101619.53;;;10.20;80.51
76260;BME280;65076;52.362;6.588;2023-04-07T08:11:07;101621.38;;;10.46;79.97
76260;BME280;65076;52.362;6.588;2023-04-07T08:13:34;101621.75;;;10.60;79.95
76260;BME280;65076;52.362;6.588;2023-04-07T08:16:02;101629.31;;;10.51;79.42
76260;BME280;65076;52.362;6.588;2023-04-07T08:18:31;101633.63;;;10.81;78.61
76260;BME280;65076;52.362;6.588;2023-04-07T08:21:00;101628.34;;;11.01;78.02
76260;BME280;65076;52.362;6.588;2023-04-07T08:23:30;101637.13;;;11.08;78.20
76260;BME280;65076;52.362;6.588;2023-04-07T08:25:58;101635.63;;;10.76;79.56
76260;BME280;65076;52.362;6.588;2023-04-07T08:28:26;101638.13;;;11.05;78.89
76260;BME280;65076;52.362;6.588;2023-04-07T08:30:54;101638.91;;;11.32;77.10
76260;BME280;65076;52.362;6.588;2023-04-07T08:33:22;101639.44;;;11.42;76.81
76260;BME280;65076;52.362;6.588;2023-04-07T08:35:49;101642.13;;;10.95;78.82
76260;BME280;65076;52.362;6.588;2023-04-07T08:38:19;101640.34;;;10.94;79.33
76260;BME280;65076;52.362;6.588;2023-04-07T08:40:48;101650.59;;;11.34;78.01
76260;BME280;65076;52.362;6.588;2023-04-07T08:43:25;101646.47;;;11.24;78.35
76260;BME280;65076;52.362;6.588;2023-04-07T08:45:56;101653.41;;;10.83;78.17
76260;BME280;65076;52.362;6.588;2023-04-07T08:48:25;101650.47;;;11.14;77.53
76260;BME280;65076;52.362;6.588;2023-04-07T08:51:03;101660.13;;;11.44;76.93
76260;BME280;65076;52.362;6.588;2023-04-07T08:53:36;101651.06;;;11.67;76.33
76260;BME280;65076;52.362;6.588;2023-04-07T08:56:10;101655.34;;;11.74;75.95
76260;BME280;65076;52.362;6.588;2023-04-07T08:58:39;101656.22;;;11.75;76.23
76260;BME280;65076;52.362;6.588;2023-04-07T09:01:08;101659.06;;;12.15;75.43
76260;BME280;65076;52.362;6.588;2023-04-07T09:03:37;101654.72;;;12.33;73.57
76260;BME280;65076;52.362;6.588;2023-04-07T09:06:05;101666.06;;;11.99;73.43
76260;BME280;65076;52.362;6.588;2023-04-07T09:08:35;101661.78;;;11.94;75.25
76260;BME280;65076;52.362;6.588;2023-04-07T09:11:03;101669.00;;;12.16;74.26
76260;BME280;65076;52.362;6.588;2023-04-07T09:13:31;101667.13;;;11.73;76.40
76260;BME280;65076;52.362;6.588;2023-04-07T09:16:01;101670.91;;;11.46;75.53
76260;BME280;65076;52.362;6.588;2023-04-07T09:18:29;101672.72;;;11.45;76.54
76260;BME280;65076;52.362;6.588;2023-04-07T09:20:58;101670.94;;;11.91;75.55
76260;BME280;65076;52.362;6.588;2023-04-07T09:23:29;101673.59;;;11.23;76.36
76260;BME280;65076;52.362;6.588;2023-04-07T09:26:17;101676.25;;;11.71;75.27
76260;BME280;65076;52.362;6.588;2023-04-07T09:28:49;101673.44;;;11.72;75.69
76260;BME280;65076;52.362;6.588;2023-04-07T09:31:19;101669.63;;;12.23;74.19
76260;BME280;65076;52.362;6.588;2023-04-07T09:33:48;101675.19;;;11.52;75.97
76260;BME280;65076;52.362;6.588;2023-04-07T09:36:17;101672.84;;;11.66;75.28
76260;BME280;65076;52.362;6.588;2023-04-07T09:38:45;101678.66;;;11.78;75.30
76260;BME280;65076;52.362;6.588;2023-04-07T09:41:15;101677.53;;;11.84;74.07
76260;BME280;65076;52.362;6.588;2023-04-07T09:43:45;101685.06;;;11.99;73.28
76260;BME280;65076;52.362;6.588;2023-04-07T09:46:14;101686.91;;;11.52;74.06
76260;BME280;65076;52.362;6.588;2023-04-07T09:48:45;101682.97;;;11.84;73.46
76260;BME280;65076;52.362;6.588;2023-04-07T09:51:15;101689.44;;;11.57;73.63
76260;BME280;65076;52.362;6.588;2023-04-07T09:53:45;101685.81;;;11.34;74.06
76260;BME280;65076;52.362;6.588;2023-04-07T09:56:18;101688.03;;;10.74;76.67
76260;BME280;65076;52.362;6.588;2023-04-07T09:58:49;101695.22;;;11.47;75.33
76260;BME280;65076;52.362;6.588;2023-04-07T10:01:19;101696.16;;;11.70;73.95
76260;BME280;65076;52.362;6.588;2023-04-07T10:03:47;101699.56;;;11.28;73.51
76260;BME280;65076;52.362;6.588;2023-04-07T10:06:19;101687.38;;;11.17;75.73
76260;BME280;65076;52.362;6.588;2023-04-07T10:08:48;101703.59;;;11.65;74.54
76260;BME280;65076;52.362;6.588;2023-04-07T10:11:19;101706.00;;;11.01;74.92
76260;BME280;65076;52.362;6.588;2023-04-07T10:13:47;101708.00;;;11.67;73.71
76260;BME280;65076;52.362;6.588;2023-04-07T10:16:16;101704.59;;;12.09;73.81
76260;BME280;65076;52.362;6.588;2023-04-07T10:18:44;101704.66;;;11.84;73.32
76260;BME280;65076;52.362;6.588;2023-04-07T10:21:15;101708.75;;;12.17;72.50
76260;BME280;65076;52.362;6.588;2023-04-07T10:23:49;101704.78;;;11.81;71.88
76260;BME280;65076;52.362;6.588;2023-04-07T10:26:29;101705.63;;;12.05;71.69
76260;BME280;65076;52.362;6.588;2023-04-07T10:29:03;101707.78;;;11.97;72.34
76260;BME280;65076;52.362;6.588;2023-04-07T10:31:36;101703.19;;;12.20;72.21
76260;BME280;65076;52.362;6.588;2023-04-07T10:34:05;101710.00;;;12.09;71.60
76260;BME280;65076;52.362;6.588;2023-04-07T10:36:33;101712.28;;;11.98;71.38
76260;BME280;65076;52.362;6.588;2023-04-07T10:39:20;101718.66;;;12.18;71.47
76260;BME280;65076;52.362;6.588;2023-04-07T10:41:50;101724.84;;;11.29;72.52
76260;BME280;65076;52.362;6.588;2023-04-07T10:44:43;101725.66;;;11.79;71.77
76260;BME280;65076;52.362;6.588;2023-04-07T10:47:14;101719.81;;;11.89;72.39
76260;BME280;65076;52.362;6.588;2023-04-07T10:50:15;101726.91;;;11.69;72.80
76260;BME280;65076;52.362;6.588;2023-04-07T10:52:46;101733.78;;;11.79;72.51
76260;BME280;65076;52.362;6.588;2023-04-07T10:55:30;101727.88;;;11.44;73.25
76260;BME280;65076;52.362;6.588;2023-04-07T10:58:21;101734.13;;;11.22;74.82
76260;BME280;65076;52.362;6.588;2023-04-07T11:01:16;101738.00;;;11.63;73.90
76260;BME280;65076;52.362;6.588;2023-04-07T11:03:55;101745.19;;;11.40;74.37
76260;BME280;65076;52.362;6.588;2023-04-07T11:06:26;101742.34;;;11.43;73.87
76260;BME280;65076;52.362;6.588;2023-04-07T11:08:54;101741.22;;;11.74;73.26
76260;BME280;65076;52.362;6.588;2023-04-07T11:11:38;101748.22;;;11.56;73.50
76260;BME280;65076;52.362;6.588;2023-04-07T11:14:09;101748.72;;;11.18;74.30
76260;BME280;65076;52.362;6.588;2023-04-07T11:16:39;101755.75;;;11.23;74.33
76260;BME280;65076;52.362;6.588;2023-04-07T11:19:09;101747.53;;;11.50;73.45
76260;BME280;65076;52.362;6.588;2023-04-07T11:21:37;101752.25;;;11.68;72.74
76260;BME280;65076;52.362;6.588;2023-04-07T11:24:05;101757.94;;;11.62;72.81
76260;BME280;65076;52.362;6.588;2023-04-07T11:26:37;101765.09;;;11.63;73.15
76260;BME280;65076;52.362;6.588;2023-04-07T11:29:06;101757.97;;;11.85;73.65
76260;BME280;65076;52.362;6.588;2023-04-07T11:31:35;101764.09;;;11.90;73.53
76260;BME280;65076;52.362;6.588;2023-04-07T11:34:06;101763.56;;;11.80;72.97
76260;BME280;65076;52.362;6.588;2023-04-07T11:36:39;101769.72;;;11.61;73.35
76260;BME280;65076;52.362;6.588;2023-04-07T11:39:18;101770.63;;;11.84;72.28
76260;BME280;65076;52.362;6.588;2023-04-07T11:41:49;101767.63;;;11.67;71.98
76260;BME280;65076;52.362;6.588;2023-04-07T11:44:17;101776.09;;;11.83;72.42
76260;BME280;65076;52.362;6.588;2023-04-07T11:47:01;101780.66;;;11.82;71.57
76260;BME280;65076;52.362;6.588;2023-04-07T11:49:30;101773.75;;;11.72;71.02
76260;BME280;65076;52.362;6.588;2023-04-07T11:51:59;101782.03;;;11.69;71.80
76260;BME280;65076;52.362;6.588;2023-04-07T11:54:39;101779.00;;;12.02;71.14
76260;BME280;65076;52.362;6.588;2023-04-07T11:57:08;101786.75;;;11.64;71.79
76260;BME280;65076;52.362;6.588;2023-04-07T11:59:38;101775.53;;;11.75;71.62
76260;BME280;65076;52.362;6.588;2023-04-07T12:02:08;101779.94;;;11.53;73.25
76260;BME280;65076;52.362;6.588;2023-04-07T12:04:36;101790.44;;;11.86;73.36
76260;BME280;65076;52.362;6.588;2023-04-07T12:07:07;101786.63;;;11.92;72.50
76260;BME280;65076;52.362;6.588;2023-04-07T12:09:36;101787.13;;;11.78;71.59
76260;BME280;65076;52.362;6.588;2023-04-07T12:12:06;101794.38;;;11.53;73.15
76260;BME280;65076;52.362;6.588;2023-04-07T12:14:36;101802.03;;;11.42;74.00
76260;BME280;65076;52.362;6.588;2023-04-07T12:17:04;101794.16;;;11.84;72.64
76260;BME280;65076;52.362;6.588;2023-04-07T12:19:34;101802.50;;;11.78;72.40
76260;BME280;65076;52.362;6.588;2023-04-07T12:22:04;101795.78;;;12.11;71.99
76260;BME280;65076;52.362;6.588;2023-04-07T12:24:34;101792.03;;;12.37;72.56
76260;BME280;65076;52.362;6.588;2023-04-07T12:27:02;101801.69;;;11.99;72.08
76260;BME280;65076;52.362;6.588;2023-04-07T12:29:30;101798.22;;;12.41;70.64
76260;BME280;65076;52.362;6.588;2023-04-07T12:31:58;101804.44;;;12.66;68.92
76260;BME280;65076;52.362;6.588;2023-04-07T12:34:26;101800.63;;;12.48;68.47
76260;BME280;65076;52.362;6.588;2023-04-07T12:36:55;101810.72;;;12.00;69.52
76260;BME280;65076;52.362;6.588;2023-04-07T12:39:23;101810.66;;;12.24;70.02
76260;BME280;65076;52.362;6.588;2023-04-07T12:41:52;101814.13;;;12.28;70.01
76260;BME280;65076;52.362;6.588;2023-04-07T12:44:20;101810.53;;;12.27;69.14
76260;BME280;65076;52.362;6.588;2023-04-07T12:46:47;101807.13;;;11.99;70.69
76260;BME280;65076;52.362;6.588;2023-04-07T12:49:15;101811.72;;;12.20;70.66
76260;BME280;65076;52.362;6.588;2023-04-07T12:51:44;101823.16;;;11.82;73.23
76260;BME280;65076;52.362;6.588;2023-04-07T12:54:16;101816.00;;;12.49;70.53
76260;BME280;65076;52.362;6.588;2023-04-07T12:56:44;101825.03;;;12.50;70.85
76260;BME280;65076;52.362;6.588;2023-04-07T12:59:13;101814.16;;;12.50;69.19
76260;BME280;65076;52.362;6.588;2023-04-07T13:01:41;101817.94;;;12.67;68.23
76260;BME280;65076;52.362;6.588;2023-04-07T13:04:09;101826.25;;;12.41;69.33
76260;BME280;65076;52.362;6.588;2023-04-07T13:06:37;101823.84;;;12.34;69.51